This is the latest recevied weather packets stored in our database for station/object E25RIV-1. If no packets are shown the sender has not sent any weather packets the latest 1 day(s).
| Time | Temp. | Humidity | Pressure | Rain* | Wind** | Luminosity | Snow |
|---|---|---|---|---|---|---|---|
| 1836274615 | 31.67° C | 99% | 1004 hPa | - | 0 m/s | 0 W/m² | - |
| 1836274489 | 31.67° C | 94% | 1004 hPa | - | 0 m/s | 0 W/m² | - |
| 1836273991 | 31.11° C | 99% | 1004 hPa | - | 0 m/s | 0 W/m² | - |
| 1778069119 | 27.22° C | 99% | 1002 hPa | - | 0 m/s | 0 W/m² | - |
| 1778068495 | 27.22° C | 99% | 1002 hPa | - | 0 m/s | 0 W/m² | - |
| 1778067871 | 27.22° C | 99% | 1002 hPa | - | 0 m/s | 0 W/m² | - |
| 1778067248 | 27.22° C | 99% | 1002 hPa | - | 0 m/s | 0 W/m² | - |
| 1778066623 | 27.22° C | 99% | 1003 hPa | - | 0 m/s | 0 W/m² | - |
| 1778065999 | 27.22° C | 99% | 1002 hPa | - | 0 m/s | 0 W/m² | - |
| 1778065375 | 27.22° C | 99% | 1002 hPa | - | 0 m/s | 0 W/m² | - |
| 1778064751 | 27.22° C | 99% | 1002 hPa | - | 0 m/s | 0 W/m² | - |
| 1778064127 | 27.22° C | 99% | 1002 hPa | - | 0 m/s | 0 W/m² | - |
| 1778063502 | 27.78° C | 99% | 1002 hPa | - | 0 m/s | 0 W/m² | - |
| 1778062878 | 28.33° C | 99% | 1002 hPa | - | 0 m/s | 0 W/m² | - |
| 1778062254 | 28.89° C | 93% | 1002 hPa | - | 0 m/s | 0 W/m² | - |
| 1778061630 | 29.44° C | 93% | 1003 hPa | - | 0 m/s | 0 W/m² | - |
| 1778061006 | 31.11° C | 75% | 1004 hPa | - | 0 m/s | 0 W/m² | - |
| 1778060382 | 32.78° C | 68% | 1003 hPa | - | 0 m/s | 0 W/m² | - |
| 1778059758 | 33.89° C | 63% | 1002 hPa | - | 0 m/s | 0 W/m² | - |
| 1778059134 | 33.89° C | 60% | 1000 hPa | - | 0 m/s | 0 W/m² | - |
| 1778058510 | 35° C | 56% | 997 hPa | - | 0 m/s | 0 W/m² | - |
| 1778057889 | 36.67° C | 52% | 993 hPa | - | 0 m/s | 0 W/m² | - |
| 1778057262 | 38.33° C | 46% | 990 hPa | - | 0 m/s | 0 W/m² | - |
| 1778056639 | 38.33° C | 46% | 990 hPa | - | 0 m/s | 0 W/m² | - |
| 1778056015 | 38.89° C | 45% | 990 hPa | - | 0 m/s | 0 W/m² | - |
* Rain since midnight (hover to see other rain measurements)
** Current wind speed in m/s (hover to see current wind gust speed)